Time;durP1;ratioP1;P1;durP2;ratioP2;P2;SDS_P1;SDS_P2;PMS_P1;PMS_P2;Temp;Humidity;BMP_temperature;BMP_pressure;BME280_temperature;BME280_humidity;BME280_pressure;Samples;Min_cycle;Max_cycle;Signal;HPM_P1;HPM_P2
2021/05/24 00:00:01;;;;;;;3.03;1.10;;;;;;;4.87;100.00;93757.13;5075721;28;20581;-78
2021/05/24 00:02:27;;;;;;;2.43;1.07;;;;;;;4.72;100.00;93760.41;5075560;28;20202;-77
2021/05/24 00:04:56;;;;;;;2.37;1.23;;;;;;;4.62;100.00;93755.41;5075783;28;20607;-77
2021/05/24 00:07:22;;;;;;;1.30;1.00;;;;;;;4.50;100.00;93756.72;5075444;28;20206;-75
2021/05/24 00:09:48;;;;;;;2.70;1.20;;;;;;;4.44;100.00;93755.59;5075178;28;20199;-77
2021/05/24 00:12:14;;;;;;;3.00;1.10;;;;;;;4.52;100.00;93748.81;5075566;28;20653;-76
2021/05/24 00:14:41;;;;;;;2.40;1.03;;;;;;;4.45;100.00;93739.13;5075560;28;20202;-77
2021/05/24 00:17:10;;;;;;;1.67;1.00;;;;;;;4.33;100.00;93735.25;5075472;28;20198;-77
2021/05/24 00:19:36;;;;;;;1.77;1.07;;;;;;;4.33;100.00;93724.09;5075446;28;20295;-77
2021/05/24 00:22:02;;;;;;;1.97;1.00;;;;;;;4.29;100.00;93725.41;5074975;28;20706;-77
2021/05/24 00:24:28;;;;;;;1.43;1.03;;;;;;;4.22;100.00;93722.66;5075469;28;20561;-77
2021/05/24 00:26:58;;;;;;;2.03;1.00;;;;;;;4.23;100.00;93719.09;5075199;28;20202;-76
2021/05/24 00:29:27;;;;;;;1.77;1.03;;;;;;;4.42;100.00;93707.63;5075220;28;20203;-75
2021/05/24 00:31:53;;;;;;;1.10;0.90;;;;;;;4.40;100.00;93707.78;5075179;28;20202;-77
2021/05/24 00:34:19;;;;;;;1.63;1.10;;;;;;;4.49;100.00;93700.00;5074937;28;20272;-77
2021/05/24 00:36:45;;;;;;;3.37;1.07;;;;;;;5.52;100.00;93702.50;5075114;28;20625;-76
2021/05/24 00:39:12;;;;;;;3.17;1.10;;;;;;;5.89;100.00;93705.31;5074934;28;20210;-77
2021/05/24 00:41:40;;;;;;;0.93;0.70;;;;;;;5.99;100.00;93707.72;5074942;28;20234;-76
2021/05/24 00:44:07;;;;;;;3.23;0.80;;;;;;;6.65;99.36;93697.56;5075085;28;20218;-77
2021/05/24 00:46:39;;;;;;;1.63;0.77;;;;;;;7.16;94.56;93686.44;5074752;28;20206;-76
2021/05/24 00:49:06;;;;;;;1.67;0.93;;;;;;;7.49;90.45;93684.22;5074616;28;20260;-77
2021/05/24 00:51:35;;;;;;;0.80;0.70;;;;;;;7.71;89.55;93687.66;5074814;28;20203;-76
2021/05/24 00:54:02;;;;;;;2.57;0.80;;;;;;;7.92;87.44;93676.44;5074489;28;20206;-76
2021/05/24 00:56:30;;;;;;;0.80;0.80;;;;;;;8.20;86.22;93667.06;5074679;28;20294;-76
2021/05/24 00:58:57;;;;;;;0.83;0.60;;;;;;;8.25;85.13;93668.09;5074643;28;20210;-77
2021/05/24 01:01:23;;;;;;;0.80;0.60;;;;;;;8.43;85.81;93665.06;5074346;28;20277;-76
2021/05/24 01:03:52;;;;;;;0.87;0.70;;;;;;;8.39;84.15;93656.00;5074367;28;20253;-77
2021/05/24 01:06:21;;;;;;;0.57;0.57;;;;;;;8.38;86.48;93653.59;5074361;28;20202;-76
2021/05/24 01:08:48;;;;;;;2.10;0.80;;;;;;;8.07;87.49;93665.16;5074664;28;20199;-77
2021/05/24 01:11:14;;;;;;;1.93;0.70;;;;;;;8.39;82.28;93650.00;5074943;28;20289;-78
2021/05/24 01:13:40;;;;;;;2.03;0.87;;;;;;;8.27;85.76;93641.91;5076313;28;20199;-78
2021/05/24 01:16:06;;;;;;;2.80;1.10;;;;;;;8.12;86.03;93653.19;5074042;28;20202;-76
2021/05/24 01:18:32;;;;;;;3.70;0.80;;;;;;;8.17;83.62;93646.66;5074275;28;20726;-76
2021/05/24 01:20:58;;;;;;;1.50;0.93;;;;;;;8.01;87.29;93645.13;5074170;28;20230;-77
2021/05/24 01:23:27;;;;;;;4.47;1.00;;;;;;;7.50;90.94;93659.84;5073876;28;20300;-78
2021/05/24 01:25:54;;;;;;;0.80;0.67;;;;;;;7.98;84.99;93638.50;5073904;28;20206;-79
2021/05/24 01:28:21;;;;;;;1.27;1.07;;;;;;;7.63;89.44;93630.59;5073784;28;20203;-77
2021/05/24 01:30:47;;;;;;;2.17;0.70;;;;;;;7.08;92.45;93626.81;5073749;28;20211;-77
2021/05/24 01:33:14;;;;;;;1.70;0.70;;;;;;;7.21;90.43;93621.78;5073758;28;20662;-77
2021/05/24 01:35:41;;;;;;;1.23;0.70;;;;;;;7.33;88.60;93641.09;5073857;28;20202;-79
2021/05/24 01:38:09;;;;;;;0.93;0.77;;;;;;;7.80;84.85;93628.56;5073779;28;20221;-77
2021/05/24 01:40:36;;;;;;;3.33;0.80;;;;;;;8.38;82.52;93623.19;5073715;28;20669;-77
2021/05/24 01:43:04;;;;;;;0.97;0.67;;;;;;;8.40;81.19;93621.19;5073501;28;20203;-77
2021/05/24 01:45:30;;;;;;;2.40;0.67;;;;;;;8.22;85.20;93620.88;5073433;28;20202;-76
2021/05/24 01:47:56;;;;;;;2.70;0.87;;;;;;;7.99;81.86;93624.50;5073461;28;20285;-78
2021/05/24 01:50:22;;;;;;;2.00;0.83;;;;;;;7.94;83.40;93606.06;5073726;28;20210;-77
2021/05/24 01:52:49;;;;;;;0.77;0.57;;;;;;;7.98;84.13;93612.50;5073475;28;20209;-78
2021/05/24 01:55:16;;;;;;;2.13;1.40;;;;;;;7.75;87.31;93613.53;5073460;28;20199;-77
2021/05/24 01:57:43;;;;;;;2.27;0.77;;;;;;;7.76;84.90;93615.13;5073280;28;20657;-77
2021/05/24 02:00:11;;;;;;;1.37;0.83;;;;;;;7.83;84.76;93610.00;5073419;28;20655;-77
2021/05/24 02:02:39;;;;;;;2.77;0.80;;;;;;;7.73;85.14;93605.13;5073468;28;20203;-77
2021/05/24 02:05:06;;;;;;;0.77;0.77;;;;;;;7.82;84.08;93602.38;5073355;28;20203;-77
2021/05/24 02:07:32;;;;;;;1.30;0.73;;;;;;;8.13;80.01;93597.63;5073220;28;20206;-78
2021/05/24 02:09:58;;;;;;;0.87;0.70;;;;;;;8.38;79.38;93604.19;5073170;28;20290;-76
2021/05/24 02:12:24;;;;;;;0.70;0.60;;;;;;;8.44;80.35;93611.25;5073040;28;20206;-75
2021/05/24 02:14:52;;;;;;;1.03;0.70;;;;;;;8.15;81.23;93606.03;5073301;28;20253;-77
2021/05/24 02:17:18;;;;;;;5.20;0.87;;;;;;;8.26;79.94;93599.50;5072505;28;20198;-78
2021/05/24 02:19:46;;;;;;;1.00;0.60;;;;;;;8.38;78.86;93586.78;5073192;28;20198;-77
2021/05/24 02:22:12;;;;;;;2.07;0.80;;;;;;;8.48;78.70;93592.47;5072888;28;20235;-76
2021/05/24 02:24:38;;;;;;;1.80;0.83;;;;;;;8.74;77.36;93580.56;5073271;28;20210;-75
2021/05/24 02:27:04;;;;;;;0.50;0.50;;;;;;;8.90;78.32;93597.66;5072913;28;20222;-78
2021/05/24 02:29:31;;;;;;;1.03;0.70;;;;;;;8.96;79.34;93598.66;5072868;28;20681;-77
2021/05/24 02:31:58;;;;;;;0.60;0.60;;;;;;;9.02;78.85;93571.84;5073023;28;20202;-76
2021/05/24 02:34:24;;;;;;;1.53;0.90;;;;;;;9.01;79.37;93565.03;5072890;28;20233;-76
2021/05/24 02:36:50;;;;;;;6.03;0.90;;;;;;;9.13;78.34;93563.47;5072942;28;20206;-76
2021/05/24 02:39:16;;;;;;;4.17;0.80;;;;;;;9.23;79.24;93557.91;5072838;28;20226;-77
2021/05/24 02:41:42;;;;;;;1.40;0.70;;;;;;;9.39;77.94;93552.31;5071844;28;21207;-76
2021/05/24 02:44:08;;;;;;;3.10;0.83;;;;;;;9.43;77.33;93553.50;5072811;28;20202;-77
2021/05/24 02:46:35;;;;;;;0.97;0.67;;;;;;;9.46;77.13;93562.75;5072905;28;20237;-76
2021/05/24 02:49:02;;;;;;;1.67;0.70;;;;;;;9.38;78.04;93562.94;5072971;28;20199;-77
2021/05/24 02:51:28;;;;;;;1.17;0.67;;;;;;;9.43;77.74;93552.72;5072747;28;20672;-77
2021/05/24 02:53:54;;;;;;;0.53;0.53;;;;;;;9.47;77.57;93559.13;5072610;28;20202;-78
2021/05/24 02:56:20;;;;;;;0.57;0.57;;;;;;;9.49;78.06;93556.31;5072831;28;20210;-78
2021/05/24 02:58:46;;;;;;;4.40;0.70;;;;;;;9.45;77.93;93551.50;5072803;28;20202;-77
2021/05/24 03:01:13;;;;;;;3.33;0.70;;;;;;;9.54;77.26;93543.50;5072647;28;20762;-77
2021/05/24 03:03:40;;;;;;;0.93;0.70;;;;;;;9.59;76.16;93551.53;5072769;28;20198;-77
2021/05/24 03:06:07;;;;;;;1.10;0.70;;;;;;;9.72;76.31;93550.72;5072666;28;20209;-77
2021/05/24 03:08:33;;;;;;;5.70;0.80;;;;;;;9.70;74.87;93552.75;5072527;28;20198;-77
2021/05/24 03:10:59;;;;;;;0.93;0.80;;;;;;;9.78;75.94;93552.53;5072519;28;20206;-76
2021/05/24 03:13:26;;;;;;;2.10;0.70;;;;;;;9.82;75.66;93548.50;5072750;28;20198;-77
2021/05/24 03:15:52;;;;;;;1.60;0.77;;;;;;;9.75;75.46;93545.91;5072637;28;20199;-77
2021/05/24 03:18:18;;;;;;;1.80;0.60;;;;;;;9.74;75.75;93543.50;5072591;28;20209;-77
2021/05/24 03:20:44;;;;;;;1.53;0.80;;;;;;;9.79;74.96;93554.94;5074964;28;20312;-77
2021/05/24 03:23:11;;;;;;;0.90;0.80;;;;;;;9.81;75.19;93546.94;5072132;28;20253;-79
2021/05/24 03:25:37;;;;;;;0.63;0.60;;;;;;;9.74;76.03;93538.28;5072625;28;20206;-77
2021/05/24 03:28:03;;;;;;;0.73;0.60;;;;;;;9.58;76.81;93540.28;5072678;28;20198;-76
2021/05/24 03:30:29;;;;;;;0.67;0.67;;;;;;;9.44;77.85;93530.84;5075635;28;20688;-78
2021/05/24 03:32:55;;;;;;;0.77;0.57;;;;;;;9.18;79.27;93537.66;5076139;28;20285;-77
2021/05/24 03:35:21;;;;;;;0.63;0.60;;;;;;;9.24;77.96;93518.63;5076054;28;20203;-77
2021/05/24 03:37:47;;;;;;;0.77;0.60;;;;;;;9.32;77.03;93535.06;5076155;28;20207;-77
2021/05/24 03:40:17;;;;;;;0.70;0.70;;;;;;;9.38;78.33;93529.06;5075868;28;20268;-78
2021/05/24 03:42:43;;;;;;;0.70;0.60;;;;;;;9.26;77.75;93521.84;5076035;28;20207;-79
2021/05/24 03:45:12;;;;;;;1.00;0.53;;;;;;;9.26;78.03;93521.03;5076082;28;20202;-78
2021/05/24 03:47:38;;;;;;;0.60;0.60;;;;;;;9.20;77.49;93527.03;5075758;28;20195;-78
2021/05/24 03:50:06;;;;;;;0.67;0.67;;;;;;;8.95;80.77;93534.59;5075838;28;20264;-78
2021/05/24 03:52:32;;;;;;;1.33;0.60;;;;;;;8.74;82.18;93538.91;5075671;28;20604;-78
2021/05/24 03:54:58;;;;;;;0.80;0.60;;;;;;;8.59;82.44;93541.66;5075721;28;20248;-78
2021/05/24 03:57:24;;;;;;;1.10;0.60;;;;;;;8.55;82.84;93540.47;5074927;28;20430;-77
2021/05/24 03:59:50;;;;;;;1.00;0.77;;;;;;;8.51;82.20;93542.66;5075697;28;20209;-78
2021/05/24 04:02:16;;;;;;;4.00;0.90;;;;;;;8.66;80.64;93547.72;5075590;28;20231;-77
2021/05/24 04:04:45;;;;;;;0.63;0.60;;;;;;;8.70;80.82;93550.72;5075509;28;20230;-77
2021/05/24 04:07:13;;;;;;;0.93;0.80;;;;;;;8.68;81.81;93550.91;5075486;28;20589;-76
2021/05/24 04:09:41;;;;;;;2.13;0.70;;;;;;;8.55;83.23;93544.88;5075696;28;20226;-76
2021/05/24 04:12:08;;;;;;;1.17;0.63;;;;;;;8.64;81.12;93547.13;5075478;28;20199;-76
2021/05/24 04:14:34;;;;;;;0.50;0.50;;;;;;;8.51;84.00;93542.66;5075455;28;20194;-77
2021/05/24 04:17:00;;;;;;;1.20;0.67;;;;;;;8.44;84.30;93549.63;5075374;28;20255;-77
2021/05/24 04:19:26;;;;;;;3.60;1.17;;;;;;;8.34;85.20;93534.34;5075108;28;20222;-77
2021/05/24 04:21:52;;;;;;;2.13;0.70;;;;;;;8.47;83.06;93518.00;5075151;28;20226;-77
2021/05/24 04:24:18;;;;;;;0.63;0.60;;;;;;;8.50;83.84;93530.63;5075192;28;20711;-76
2021/05/24 04:26:44;;;;;;;2.77;0.60;;;;;;;8.47;83.81;93540.63;5075205;28;20199;-77
2021/05/24 04:29:10;;;;;;;4.23;0.50;;;;;;;8.44;84.35;93530.59;5075193;28;20218;-75
2021/05/24 04:31:37;;;;;;;0.60;0.60;;;;;;;8.38;85.87;93539.16;5075245;28;20206;-76
2021/05/24 04:34:04;;;;;;;1.33;0.63;;;;;;;8.33;85.37;93543.13;5075047;28;20233;-76
2021/05/24 04:36:30;;;;;;;0.83;0.60;;;;;;;8.27;87.42;93528.28;5075128;28;20206;-76
2021/05/24 04:38:56;;;;;;;1.63;0.67;;;;;;;8.41;84.68;93523.13;5075143;28;20203;-76
2021/05/24 04:41:22;;;;;;;1.23;0.70;;;;;;;8.51;83.97;93521.84;5074015;28;20234;-78
2021/05/24 04:43:49;;;;;;;1.30;0.80;;;;;;;8.54;84.69;93531.03;5074898;28;20203;-78
2021/05/24 04:46:15;;;;;;;0.67;0.67;;;;;;;8.49;86.40;93523.84;5074868;28;20203;-77
2021/05/24 04:48:42;;;;;;;1.53;0.70;;;;;;;8.47;85.89;93518.00;5074584;28;20276;-76
2021/05/24 04:51:08;;;;;;;0.80;0.80;;;;;;;8.52;86.60;93531.22;5074908;28;20206;-77
2021/05/24 04:53:34;;;;;;;1.97;0.70;;;;;;;8.45;88.46;93535.59;5074823;28;20203;-77
2021/05/24 04:56:00;;;;;;;0.60;0.60;;;;;;;8.47;87.61;93536.22;5074805;28;20228;-76
2021/05/24 04:58:26;;;;;;;4.03;0.80;;;;;;;8.49;89.87;93529.03;5074885;28;20199;-77
2021/05/24 05:00:52;;;;;;;0.73;0.70;;;;;;;8.45;92.31;93525.19;5074500;28;20267;-78
2021/05/24 05:03:18;;;;;;;0.70;0.70;;;;;;;8.50;89.22;93528.03;5074286;28;20258;-78
2021/05/24 05:05:45;;;;;;;1.43;0.70;;;;;;;8.57;88.27;93529.84;5074568;28;20198;-78
2021/05/24 05:08:11;;;;;;;0.50;0.50;;;;;;;8.64;89.50;93533.28;5074510;28;20195;-76
2021/05/24 05:10:37;;;;;;;0.93;0.70;;;;;;;8.65;88.75;93532.28;5074371;28;20203;-77
2021/05/24 05:13:03;;;;;;;1.30;0.60;;;;;;;8.76;89.78;93521.31;5074248;28;20677;-77
2021/05/24 05:15:29;;;;;;;0.90;0.70;;;;;;;8.81;88.09;93526.75;5074068;28;20699;-77
2021/05/24 05:17:55;;;;;;;1.27;0.70;;;;;;;8.90;89.70;93522.16;5074290;28;20207;-77
2021/05/24 05:20:21;;;;;;;2.17;0.80;;;;;;;8.95;89.71;93524.19;5074209;28;20632;-77
2021/05/24 05:22:48;;;;;;;0.77;0.50;;;;;;;9.03;88.71;93516.19;5076570;28;20307;-77
2021/05/24 05:25:14;;;;;;;0.87;0.80;;;;;;;9.05;89.96;93514.19;5074125;28;20199;-78
2021/05/24 05:27:40;;;;;;;0.83;0.70;;;;;;;9.08;91.44;93514.59;5073940;28;20203;-78
2021/05/24 05:30:08;;;;;;;0.67;0.67;;;;;;;9.20;89.84;93522.63;5073819;28;20195;-79
2021/05/24 05:32:34;;;;;;;1.63;1.00;;;;;;;9.23;92.20;93517.03;5073737;28;20253;-78
2021/05/24 05:35:00;;;;;;;1.07;0.77;;;;;;;9.32;92.46;93519.44;5073993;28;20203;-78
2021/05/24 05:37:26;;;;;;;1.83;0.60;;;;;;;9.29;94.73;93512.81;5073811;28;20711;-78
2021/05/24 05:39:55;;;;;;;0.60;0.60;;;;;;;9.40;94.49;93527.06;5073817;28;20202;-78
2021/05/24 05:42:22;;;;;;;1.30;0.80;;;;;;;9.60;87.59;93524.47;5073567;28;20237;-77
2021/05/24 05:44:48;;;;;;;0.93;0.60;;;;;;;9.56;92.52;93520.63;5073559;28;20260;-77
2021/05/24 05:47:14;;;;;;;0.87;0.73;;;;;;;9.81;89.97;93515.66;5073745;28;20205;-77
2021/05/24 05:49:40;;;;;;;3.73;0.70;;;;;;;9.74;90.86;93502.63;5073692;28;20202;-77
2021/05/24 05:52:06;;;;;;;1.30;0.80;;;;;;;9.96;88.28;93505.00;5072909;28;20584;-77
2021/05/24 05:54:32;;;;;;;0.80;0.70;;;;;;;9.98;88.40;93502.97;5073190;28;20210;-78
2021/05/24 05:56:59;;;;;;;0.60;0.60;;;;;;;10.17;88.33;93498.72;5073256;28;20676;-78
2021/05/24 05:59:25;;;;;;;1.53;1.03;;;;;;;10.22;88.09;93498.91;5073192;28;20214;-76
2021/05/24 06:01:51;;;;;;;0.70;0.70;;;;;;;10.58;85.35;93497.63;5073459;28;20226;-77
2021/05/24 06:04:17;;;;;;;2.27;1.00;;;;;;;10.79;83.63;93503.53;5073271;28;20202;-78
2021/05/24 06:06:43;;;;;;;1.50;0.83;;;;;;;10.74;83.12;93515.44;5073291;28;20199;-78
2021/05/24 06:09:09;;;;;;;1.77;1.03;;;;;;;10.86;83.10;93509.56;5073548;28;20198;-78
2021/05/24 06:11:36;;;;;;;1.67;1.10;;;;;;;10.94;81.28;93501.44;5073222;28;20234;-79
2021/05/24 06:14:03;;;;;;;1.87;1.13;;;;;;;11.06;79.31;93509.44;5072996;28;20199;-77
2021/05/24 06:16:29;;;;;;;1.30;0.80;;;;;;;11.02;79.11;93508.25;5073253;28;20198;-77
2021/05/24 06:18:55;;;;;;;2.13;1.00;;;;;;;11.07;80.66;93517.09;5073168;28;20561;-76
2021/05/24 06:21:21;;;;;;;3.10;1.03;;;;;;;10.98;83.83;93510.50;5073001;28;20288;-78
2021/05/24 06:23:47;;;;;;;1.53;1.03;;;;;;;10.68;87.06;93505.81;5073003;28;20230;-77
2021/05/24 06:26:13;;;;;;;1.77;0.90;;;;;;;10.84;87.78;93506.34;5072964;28;20209;-78
2021/05/24 06:28:39;;;;;;;5.07;0.90;;;;;;;11.09;84.20;93501.16;5072882;28;20719;-77
2021/05/24 06:31:06;;;;;;;2.43;1.00;;;;;;;11.21;84.00;93501.31;5072840;28;20648;-76
2021/05/24 06:33:32;;;;;;;2.63;0.80;;;;;;;11.54;79.70;93502.88;5072897;28;20198;-76
2021/05/24 06:35:58;;;;;;;2.00;0.80;;;;;;;11.60;80.10;93502.03;5073006;28;20202;-77
2021/05/24 06:38:24;;;;;;;3.50;1.00;;;;;;;11.47;80.99;93506.38;5073001;28;20714;-78
2021/05/24 06:40:50;;;;;;;1.53;1.00;;;;;;;11.65;81.06;93507.44;5072737;28;20226;-78
2021/05/24 06:43:16;;;;;;;1.97;1.37;;;;;;;11.64;82.17;93505.81;5072585;28;20203;-78
2021/05/24 06:45:42;;;;;;;4.40;2.10;;;;;;;12.03;77.53;93506.53;5072972;28;20206;-78
2021/05/24 06:48:09;;;;;;;6.83;2.90;;;;;;;12.38;76.80;93511.22;5072627;28;20203;-78
2021/05/24 06:50:35;;;;;;;7.77;3.93;;;;;;;12.59;74.61;93502.94;5072667;28;20648;-77
2021/05/24 06:53:01;;;;;;;8.43;3.27;;;;;;;12.47;74.22;93507.28;5072706;28;20202;-79
2021/05/24 06:55:27;;;;;;;5.83;2.87;;;;;;;12.45;75.80;93506.69;5072612;28;20198;-78
2021/05/24 06:57:52;;;;;;;6.87;2.97;;;;;;;12.96;75.21;93509.94;5072535;28;20221;-78
2021/05/24 07:00:19;;;;;;;13.33;6.67;;;;;;;13.57;73.10;93496.81;5072795;28;20658;-79
2021/05/24 07:02:47;;;;;;;4.97;2.80;;;;;;;13.69;73.19;93495.00;5072685;28;20194;-78
2021/05/24 07:05:15;;;;;;;8.77;3.57;;;;;;;13.58;74.67;93499.19;5075705;28;20198;-80
2021/05/24 07:07:41;;;;;;;5.13;2.30;;;;;;;13.43;76.65;93491.75;5076620;28;20210;-79
2021/05/24 07:10:08;;;;;;;3.93;1.60;;;;;;;13.47;73.15;93498.16;5076515;28;20205;-78
2021/05/24 07:12:34;;;;;;;3.73;1.33;;;;;;;13.59;74.69;93490.31;5076427;28;20226;-78
2021/05/24 07:15:03;;;;;;;2.23;1.23;;;;;;;13.92;72.76;93488.16;5076627;28;20657;-78
2021/05/24 07:17:29;;;;;;;3.20;1.50;;;;;;;13.79;72.99;93489.19;5076743;28;20267;-79
2021/05/24 07:19:55;;;;;;;3.05;1.10;;;;;;;13.87;73.68;93484.41;5076377;28;20199;-79
2021/05/24 07:22:22;;;;;;;1.58;1.20;;;;;;;14.37;72.91;93490.19;5076057;28;20755;-78
2021/05/24 07:24:48;;;;;;;1.77;1.20;;;;;;;15.26;69.72;93486.41;5077717;28;20203;-81
2021/05/24 07:27:13;;;;;;;2.75;1.40;;;;;;;15.63;67.15;93483.34;5077934;28;20233;-79
2021/05/24 07:29:39;;;;;;;2.50;1.40;;;;;;;15.73;68.92;93496.66;5076421;28;20202;-79
2021/05/24 07:32:10;;;;;;;1.33;0.98;;;;;;;15.96;63.50;93492.31;5076100;28;20657;-79
2021/05/24 07:34:36;;;;;;;1.23;1.08;;;;;;;15.88;58.66;93494.31;5076204;28;20230;-79
2021/05/24 07:37:02;;;;;;;4.35;2.50;;;;;;;16.33;59.88;93491.78;5076039;28;20195;-79
2021/05/24 07:39:29;;;;;;;4.72;1.20;;;;;;;17.24;59.32;93493.16;5076035;28;20675;-80
2021/05/24 07:41:59;;;;;;;0.90;0.80;;;;;;;17.78;61.00;93492.31;5076099;28;20230;-80
2021/05/24 07:44:25;;;;;;;0.98;0.90;;;;;;;17.67;57.40;93502.81;5075995;28;20199;-79
2021/05/24 07:46:51;;;;;;;2.53;0.90;;;;;;;17.57;57.03;93492.16;5076018;28;20264;-80
2021/05/24 07:49:18;;;;;;;1.10;0.80;;;;;;;16.64;53.22;93499.03;5075845;28;20260;-79
2021/05/24 07:51:44;;;;;;;0.73;0.70;;;;;;;16.49;55.92;93504.13;5075757;28;20198;-80
2021/05/24 07:54:10;;;;;;;1.25;0.70;;;;;;;16.51;54.37;93495.97;5075685;28;20213;-79
2021/05/24 07:56:37;;;;;;;3.55;0.70;;;;;;;16.52;57.00;93498.38;5075789;28;20203;-80
2021/05/24 07:59:04;;;;;;;1.25;0.75;;;;;;;16.59;56.29;93491.06;5075731;28;20722;-80
2021/05/24 08:01:30;;;;;;;1.25;0.90;;;;;;;16.99;56.33;93490.00;5075559;28;20235;-79
2021/05/24 08:03:56;;;;;;;1.90;0.82;;;;;;;17.01;54.94;93490.53;5075740;28;20715;-79
2021/05/24 08:06:23;;;;;;;0.93;0.77;;;;;;;17.52;53.28;93484.97;5075525;28;20214;-79
2021/05/24 08:08:49;;;;;;;1.58;0.60;;;;;;;17.78;54.42;93487.03;5075703;28;20203;-79
2021/05/24 08:11:15;;;;;;;0.68;0.68;;;;;;;17.14;56.33;93489.34;5075508;28;20753;-79
2021/05/24 08:13:42;;;;;;;2.00;0.70;;;;;;;16.93;54.35;93485.69;5075354;28;20206;-81
2021/05/24 08:16:10;;;;;;;2.67;0.90;;;;;;;16.49;54.89;93476.97;5074561;28;20199;-80
2021/05/24 08:18:36;;;;;;;1.40;0.50;;;;;;;16.33;53.12;93462.81;5075351;28;20284;-80
2021/05/24 08:21:04;;;;;;;2.10;0.60;;;;;;;16.37;55.46;93448.09;5074717;28;20710;-80
2021/05/24 08:23:30;;;;;;;1.45;0.63;;;;;;;16.53;53.86;93451.72;5074983;28;20709;-81
2021/05/24 08:25:56;;;;;;;0.63;0.50;;;;;;;16.57;52.83;93444.91;5075267;28;20209;-81
2021/05/24 08:28:22;;;;;;;1.20;0.88;;;;;;;17.06;51.48;93444.97;5075202;28;20209;-80
2021/05/24 08:30:49;;;;;;;1.30;0.80;;;;;;;17.21;52.77;93446.94;5075207;28;20203;-81
2021/05/24 08:33:15;;;;;;;2.17;0.65;;;;;;;17.80;52.14;93445.31;5074954;28;20654;-81
2021/05/24 08:35:41;;;;;;;0.88;0.50;;;;;;;17.82;50.85;93435.28;5074950;28;20252;-81
2021/05/24 08:38:06;;;;;;;0.73;0.52;;;;;;;18.16;52.59;93429.75;5075234;28;20237;-80
2021/05/24 08:40:33;;;;;;;0.75;0.40;;;;;;;17.85;46.32;93440.06;5074937;28;20609;-81
2021/05/24 08:43:00;;;;;;;1.25;0.60;;;;;;;18.02;45.56;93434.66;5075143;28;20202;-80
2021/05/24 08:45:29;;;;;;;0.40;0.40;;;;;;;18.89;47.07;93436.97;5075100;28;20199;-80
2021/05/24 08:47:56;;;;;;;1.02;0.70;;;;;;;18.76;45.96;93433.69;5075063;28;20566;-80
2021/05/24 08:50:22;;;;;;;0.73;0.50;;;;;;;19.04;45.46;93437.78;5074687;28;20654;-81
2021/05/24 08:52:50;;;;;;;2.28;1.27;;;;;;;19.22;42.20;93436.50;5074595;28;20733;-81
2021/05/24 08:55:16;;;;;;;2.75;0.60;;;;;;;17.96;46.69;93427.78;5074740;28;20198;-81
2021/05/24 08:57:44;;;;;;;0.50;0.43;;;;;;;18.06;47.49;93425.97;5074591;28;20203;-81
2021/05/24 09:00:14;;;;;;;2.33;0.70;;;;;;;18.22;47.57;93429.50;5074708;28;20205;-81
2021/05/24 09:02:41;;;;;;;1.02;0.70;;;;;;;19.15;44.27;93420.09;5074207;28;20701;-81
2021/05/24 09:05:09;;;;;;;4.18;0.73;;;;;;;19.22;47.78;93412.69;5074625;28;20206;-81
2021/05/24 09:07:48;;;;;;;2.75;0.50;;;;;;;18.85;44.34;93421.59;5074537;28;20203;-82
2021/05/24 09:10:14;;;;;;;0.30;0.30;;;;;;;19.20;42.40;93422.75;5074453;28;20203;-80
2021/05/24 09:12:40;;;;;;;0.90;0.65;;;;;;;19.83;42.38;93416.41;5074318;28;20657;-79
2021/05/24 09:15:11;;;;;;;3.25;0.93;;;;;;;19.73;43.02;93426.97;5074430;28;20203;-80
2021/05/24 09:17:45;;;;;;;0.68;0.50;;;;;;;19.69;43.55;93423.28;5074423;28;20271;-79
2021/05/24 09:20:16;;;;;;;1.33;0.70;;;;;;;19.43;46.53;93415.31;5074674;28;20202;-80
2021/05/24 09:22:42;;;;;;;0.73;0.32;;;;;;;19.18;43.87;93418.75;5073985;28;20249;-80
2021/05/24 09:25:08;;;;;;;1.27;0.50;;;;;;;20.07;40.92;93418.50;5073953;28;20209;-82
2021/05/24 09:27:37;;;;;;;0.50;0.50;;;;;;;20.08;41.67;93420.09;5074475;28;20198;-81
2021/05/24 09:30:06;;;;;;;0.80;0.68;;;;;;;19.56;42.27;93412.16;5074381;28;20297;-81
2021/05/24 09:32:33;;;;;;;1.17;0.68;;;;;;;18.91;41.04;93411.03;5076961;28;20199;-80
2021/05/24 09:35:02;;;;;;;1.10;0.65;;;;;;;18.38;42.29;93409.22;5076795;28;20218;-80
2021/05/24 09:37:32;;;;;;;0.55;0.50;;;;;;;18.36;45.45;93403.41;5074054;28;20230;-78
2021/05/24 09:39:58;;;;;;;0.50;0.50;;;;;;;18.72;41.65;93411.47;5093531;28;20810;-80
2021/05/24 09:42:25;;;;;;;4.50;2.22;;;;;;;19.59;39.79;93408.97;5093370;28;20317;-79
2021/05/24 09:44:53;;;;;;;3.97;0.95;;;;;;;19.32;39.39;93408.47;5093911;28;20635;-80
2021/05/24 09:47:33;;;;;;;1.40;0.55;;;;;;;19.41;40.70;93410.28;5093999;28;20296;-79
2021/05/24 09:50:08;;;;;;;1.25;0.80;;;;;;;19.32;39.66;93422.47;5093854;28;20255;-80
2021/05/24 09:52:39;;;;;;;1.75;0.65;;;;;;;19.36;39.80;93405.00;5093632;28;20205;-78
2021/05/24 09:55:16;;;;;;;0.82;0.60;;;;;;;19.30;40.91;93410.56;5093888;28;20206;-80
2021/05/24 09:57:52;;;;;;;0.57;0.50;;;;;;;19.43;39.65;93407.38;5093626;28;20686;-81
2021/05/24 10:00:22;;;;;;;0.82;0.60;;;;;;;18.66;43.72;93396.66;5093451;28;20202;-81
2021/05/24 10:02:48;;;;;;;1.98;0.63;;;;;;;18.95;39.78;93394.38;5093428;28;20226;-80
2021/05/24 10:05:14;;;;;;;0.65;0.52;;;;;;;19.11;39.06;93392.53;5093402;28;20247;-80
2021/05/24 10:07:42;;;;;;;1.58;0.73;;;;;;;19.11;39.31;93386.47;5094109;28;20255;-76
2021/05/24 10:10:09;;;;;;;0.90;0.60;;;;;;;19.54;39.13;93384.38;5093615;28;20209;-79
2021/05/24 10:12:36;;;;;;;0.80;0.50;;;;;;;19.12;38.64;93393.31;5093462;28;20201;-79
2021/05/24 10:15:02;;;;;;;4.43;0.60;;;;;;;18.26;43.80;93374.28;5093346;28;20198;-79
2021/05/24 10:17:29;;;;;;;1.95;0.40;;;;;;;18.24;41.38;93384.34;5093371;28;20259;-80
2021/05/24 10:19:55;;;;;;;0.90;0.63;;;;;;;18.10;40.58;93376.88;5093020;28;20205;-80
2021/05/24 10:22:23;;;;;;;0.80;0.50;;;;;;;17.83;39.69;93387.50;5093165;28;20234;-81
2021/05/24 10:24:50;;;;;;;1.05;0.55;;;;;;;18.02;42.10;93381.81;5093171;28;20658;-79
2021/05/24 10:27:17;;;;;;;2.85;0.77;;;;;;;18.45;39.70;93380.72;5093097;28;20198;-80
2021/05/24 10:29:43;;;;;;;1.02;0.60;;;;;;;17.96;42.06;93388.94;5093305;28;20205;-80
2021/05/24 10:32:10;;;;;;;1.60;0.50;;;;;;;17.48;42.48;93388.06;5093118;28;20703;-81
2021/05/24 10:34:38;;;;;;;0.40;0.40;;;;;;;17.59;42.43;93389.75;5092886;28;20649;-80
2021/05/24 10:37:09;;;;;;;2.13;0.40;;;;;;;17.65;41.31;93378.16;5093177;28;20212;-79
2021/05/24 10:39:45;;;;;;;0.47;0.40;;;;;;;17.42;43.49;93381.16;5092488;28;20206;-80
2021/05/24 10:42:13;;;;;;;1.33;0.47;;;;;;;17.37;43.20;93382.72;5092775;28;20715;-80
2021/05/24 10:44:43;;;;;;;0.70;0.60;;;;;;;17.52;42.28;93374.13;5092971;28;20198;-79
2021/05/24 10:47:17;;;;;;;3.08;0.60;;;;;;;17.76;47.08;93368.47;5092944;28;20209;-79
2021/05/24 10:50:02;;;;;;;1.17;0.63;;;;;;;17.68;45.33;93371.56;5093033;28;20205;-79
2021/05/24 10:52:28;;;;;;;0.98;0.40;;;;;;;17.61;44.09;93365.72;5093043;28;20537;-79
2021/05/24 10:54:54;;;;;;;3.72;0.73;;;;;;;17.64;48.55;93349.38;5092715;28;20201;-78
2021/05/24 10:57:21;;;;;;;3.15;0.70;;;;;;;17.94;45.17;93354.84;5092700;28;20676;-78
2021/05/24 10:59:56;;;;;;;0.75;0.47;;;;;;;18.81;43.87;93362.28;5092817;28;20907;-79
2021/05/24 11:02:39;;;;;;;0.68;0.50;;;;;;;18.74;42.51;93353.03;5092872;28;20228;-79
2021/05/24 11:05:20;;;;;;;3.15;0.40;;;;;;;19.03;43.02;93353.38;5092888;28;20262;-78
2021/05/24 11:07:48;;;;;;;1.40;0.40;;;;;;;19.38;41.70;93338.56;5092649;28;20198;-78
2021/05/24 11:10:44;;;;;;;0.65;0.40;;;;;;;19.09;39.34;93344.38;5092334;28;20433;-78
2021/05/24 11:13:28;;;;;;;7.60;2.65;;;;;;;19.87;38.72;93345.16;5092695;28;20259;-79
2021/05/24 11:15:56;;;;;;;1.00;0.60;;;;;;;19.86;40.80;93343.56;5092637;28;20230;-80
2021/05/24 11:18:27;;;;;;;1.60;0.80;;;;;;;20.05;38.01;93336.63;5092531;28;20323;-79
2021/05/24 11:20:58;;;;;;;1.48;0.65;;;;;;;19.71;38.18;93342.50;5092844;28;20293;-78
2021/05/24 11:23:32;;;;;;;1.73;0.77;;;;;;;20.12;36.70;93342.41;5092615;28;20248;-78
2021/05/24 11:26:35;;;;;;;2.65;0.50;;;;;;;20.47;38.07;93337.25;5092617;28;20258;-79
2021/05/24 11:29:07;;;;;;;0.55;0.50;;;;;;;20.91;35.42;93333.06;5092805;28;20198;-79
2021/05/24 11:31:48;;;;;;;0.70;0.60;;;;;;;20.42;38.26;93321.38;5092669;28;20209;-78
2021/05/24 11:34:30;;;;;;;0.93;0.63;;;;;;;20.39;35.23;93317.38;5074498;28;20297;-78
2021/05/24 11:36:57;;;;;;;0.90;0.50;;;;;;;20.08;38.38;93314.06;5072103;28;20205;-78